首页
METAR-TAF:

METAR-TAF

机场 :

山胡桃, 北卡罗来纳州, 美国

纬度: 35-44-32N, 经度: 081-22-56W, 海拔: 362米

当前天气观测

该预报发布于1小时和6分钟前的09:53 UTC
风速6节,风向
温度 1°C
湿度 100%
气压 1023 hPa
能見度: 6.4公里
阴天层高于700英尺
大雨, 轻雾

METAR: KHKY 150953Z AUTO 35006KT 4SM +RA BR OVC007 01/01 A3020 RMK AO2 CIG 005V013 SLP223 P0016 T00110011

时间: 05:59 (10:59 UTC)

预报

该预报发布于5小时和19分钟前的05:40 UTC
预报有效从15日的 06点(UTC)到 16日的 06点(UTC)
风速11节,风向东北,有时为19节阵风
能見度: 9.7公里
散云层高于900英尺
阴天层高于1500英尺
短暂存在
从 15日的 09点(UTC)到 15日的 13点(UTC)
能見度: 1.6公里
阴天层高于600英尺
大雨, 轻雾
从 15日的 1300点(UTC)
风速9节,风向北转东北,有时为17节阵风
能見度: 1.6公里
阴天层高于1100英尺
雨, 轻雾
从 15日的 1600点(UTC)
风速7节,风向
能見度: 6.4公里
阴天层高于1100英尺
小阵雨, 轻雾
几率 30%
从 15日的 19点(UTC)到 15日的 24点(UTC)
能見度: 3.2公里
阴天层高于800英尺
小雨
从 16日的 0000点(UTC)
风速10节,风向西转西北,有时为18节阵风
能見度: 9.7公里
多云层高于1900英尺
轻雾
几率 30%
从 16日的 03点(UTC)到 16日的 04点(UTC)
能見度: 6.4公里
阴天层高于800英尺
小雨
从 16日的 0400点(UTC)
风速9节,风向西,有时为17节阵风
能見度: 9.7公里
散云层高于4000英尺
轻雾

TAF: KHKY 150540Z 1506/1606 05011G19KT 6SM RA SCT009 OVC015 TEMPO 1509/1513 1SM +RA BR OVC006 FM151300 03009G17KT 1SM RA BR OVC011 FM151600 36007KT 4SM -SHRA BR OVC011 PROB30 1519/1524 2SM -RA OVC008 FM160000 29010G18KT 6SM BR BKN019 PROB30 1603/1604 4SM -RA OVC008 FM160400 28009G17KT 6SM BR SCT040

超过4000个机场的气象观测和天气预报(METAR&TAF报告)。

可查询的气象台以黄色和红色小点在地图上表示。

将鼠标移到小点上方,可查看气象台名称。

然后点击查看天气观测和预报。

如需切换地图:点击带黑十字的绿色按钮放大地图;点击带横线的绿色按钮缩小地图;或者点击绿色箭头查看邻近地区的地图。


METAR-TAF: